sensor_id;sensor_type;location;lat;lon;timestamp;P1;durP1;ratioP1;P2;durP2;ratioP2
20036;SDS011;10179;42.640;23.312;2022-10-17T00:00:56;7.82;;;4.30;;
20036;SDS011;10179;42.640;23.312;2022-10-17T00:03:22;4.80;;;3.83;;
20036;SDS011;10179;42.640;23.312;2022-10-17T00:05:47;6.25;;;3.88;;
20036;SDS011;10179;42.640;23.312;2022-10-17T00:08:14;7.85;;;3.88;;
20036;SDS011;10179;42.640;23.312;2022-10-17T00:10:40;5.55;;;3.80;;
20036;SDS011;10179;42.640;23.312;2022-10-17T00:13:06;5.38;;;3.55;;
20036;SDS011;10179;42.640;23.312;2022-10-17T00:15:33;7.22;;;4.10;;
20036;SDS011;10179;42.640;23.312;2022-10-17T00:18:00;8.15;;;4.10;;
20036;SDS011;10179;42.640;23.312;2022-10-17T00:20:25;5.93;;;4.03;;
20036;SDS011;10179;42.640;23.312;2022-10-17T00:22:51;9.15;;;5.40;;
20036;SDS011;10179;42.640;23.312;2022-10-17T00:25:17;10.13;;;5.85;;
20036;SDS011;10179;42.640;23.312;2022-10-17T00:27:43;9.65;;;5.68;;
20036;SDS011;10179;42.640;23.312;2022-10-17T00:30:10;7.63;;;4.90;;
20036;SDS011;10179;42.640;23.312;2022-10-17T00:32:37;9.23;;;4.85;;
20036;SDS011;10179;42.640;23.312;2022-10-17T00:35:03;7.97;;;4.65;;
20036;SDS011;10179;42.640;23.312;2022-10-17T00:37:29;6.35;;;4.25;;
20036;SDS011;10179;42.640;23.312;2022-10-17T00:39:55;6.03;;;3.90;;
20036;SDS011;10179;42.640;23.312;2022-10-17T00:42:21;7.10;;;4.32;;
20036;SDS011;10179;42.640;23.312;2022-10-17T00:47:14;8.25;;;5.00;;
20036;SDS011;10179;42.640;23.312;2022-10-17T00:49:43;9.80;;;5.93;;
20036;SDS011;10179;42.640;23.312;2022-10-17T00:52:14;10.02;;;5.30;;
20036;SDS011;10179;42.640;23.312;2022-10-17T00:54:45;8.65;;;4.63;;
20036;SDS011;10179;42.640;23.312;2022-10-17T00:57:15;10.33;;;6.00;;
20036;SDS011;10179;42.640;23.312;2022-10-17T00:59:42;11.00;;;6.00;;
20036;SDS011;10179;42.640;23.312;2022-10-17T01:02:12;11.10;;;5.72;;
20036;SDS011;10179;42.640;23.312;2022-10-17T01:04:40;10.40;;;6.70;;
20036;SDS011;10179;42.640;23.312;2022-10-17T01:07:08;10.65;;;6.88;;
20036;SDS011;10179;42.640;23.312;2022-10-17T01:09:34;9.20;;;6.57;;
20036;SDS011;10179;42.640;23.312;2022-10-17T01:31:37;12.75;;;6.65;;
20036;SDS011;10179;42.640;23.312;2022-10-17T01:34:43;16.10;;;7.25;;
20036;SDS011;10179;42.640;23.312;2022-10-17T01:37:27;11.45;;;6.68;;
20036;SDS011;10179;42.640;23.312;2022-10-17T01:40:11;11.80;;;6.22;;
20036;SDS011;10179;42.640;23.312;2022-10-17T01:45:53;13.32;;;6.75;;
20036;SDS011;10179;42.640;23.312;2022-10-17T01:48:26;12.60;;;7.00;;
20036;SDS011;10179;42.640;23.312;2022-10-17T01:51:00;12.05;;;6.60;;
20036;SDS011;10179;42.640;23.312;2022-10-17T01:53:32;11.75;;;6.63;;
20036;SDS011;10179;42.640;23.312;2022-10-17T01:56:02;14.20;;;7.53;;
20036;SDS011;10179;42.640;23.312;2022-10-17T01:58:32;13.18;;;7.22;;
20036;SDS011;10179;42.640;23.312;2022-10-17T02:01:03;13.23;;;7.63;;
20036;SDS011;10179;42.640;23.312;2022-10-17T02:03:31;13.27;;;7.43;;
20036;SDS011;10179;42.640;23.312;2022-10-17T02:05:59;10.77;;;5.60;;
20036;SDS011;10179;42.640;23.312;2022-10-17T02:08:38;11.90;;;5.82;;
20036;SDS011;10179;42.640;23.312;2022-10-17T02:11:14;9.68;;;5.55;;
20036;SDS011;10179;42.640;23.312;2022-10-17T02:21:34;14.32;;;6.20;;
20036;SDS011;10179;42.640;23.312;2022-10-17T02:24:29;15.63;;;6.63;;
20036;SDS011;10179;42.640;23.312;2022-10-17T02:29:47;10.48;;;5.55;;
20036;SDS011;10179;42.640;23.312;2022-10-17T02:32:40;10.00;;;5.65;;
20036;SDS011;10179;42.640;23.312;2022-10-17T02:35:12;11.17;;;5.43;;
20036;SDS011;10179;42.640;23.312;2022-10-17T02:37:39;9.60;;;5.50;;
20036;SDS011;10179;42.640;23.312;2022-10-17T02:40:07;9.93;;;5.05;;
20036;SDS011;10179;42.640;23.312;2022-10-17T02:42:35;10.23;;;5.25;;
20036;SDS011;10179;42.640;23.312;2022-10-17T02:45:02;10.25;;;5.00;;
20036;SDS011;10179;42.640;23.312;2022-10-17T02:47:33;9.45;;;4.43;;
20036;SDS011;10179;42.640;23.312;2022-10-17T02:50:03;10.80;;;4.13;;
20036;SDS011;10179;42.640;23.312;2022-10-17T02:52:38;9.35;;;4.50;;
20036;SDS011;10179;42.640;23.312;2022-10-17T02:55:18;11.85;;;4.60;;
20036;SDS011;10179;42.640;23.312;2022-10-17T02:57:49;7.97;;;4.78;;
20036;SDS011;10179;42.640;23.312;2022-10-17T03:00:18;10.93;;;4.93;;
20036;SDS011;10179;42.640;23.312;2022-10-17T03:02:48;9.48;;;4.50;;
20036;SDS011;10179;42.640;23.312;2022-10-17T03:05:19;7.63;;;4.45;;
20036;SDS011;10179;42.640;23.312;2022-10-17T03:07:50;11.30;;;4.65;;
20036;SDS011;10179;42.640;23.312;2022-10-17T03:10:16;8.30;;;5.03;;
20036;SDS011;10179;42.640;23.312;2022-10-17T03:12:41;7.95;;;4.60;;
20036;SDS011;10179;42.640;23.312;2022-10-17T03:15:07;8.23;;;4.68;;
20036;SDS011;10179;42.640;23.312;2022-10-17T03:17:33;8.57;;;4.60;;
20036;SDS011;10179;42.640;23.312;2022-10-17T03:19:59;10.18;;;4.47;;
20036;SDS011;10179;42.640;23.312;2022-10-17T03:22:25;6.22;;;4.18;;
20036;SDS011;10179;42.640;23.312;2022-10-17T03:24:50;7.88;;;4.47;;
20036;SDS011;10179;42.640;23.312;2022-10-17T03:27:15;6.35;;;4.00;;
20036;SDS011;10179;42.640;23.312;2022-10-17T03:29:41;6.57;;;3.95;;
20036;SDS011;10179;42.640;23.312;2022-10-17T03:32:06;7.40;;;4.43;;
20036;SDS011;10179;42.640;23.312;2022-10-17T03:34:32;8.15;;;4.65;;
20036;SDS011;10179;42.640;23.312;2022-10-17T03:36:57;7.15;;;4.57;;
20036;SDS011;10179;42.640;23.312;2022-10-17T03:39:22;9.43;;;4.47;;
20036;SDS011;10179;42.640;23.312;2022-10-17T03:41:48;6.95;;;4.10;;
20036;SDS011;10179;42.640;23.312;2022-10-17T03:44:13;8.88;;;4.35;;
20036;SDS011;10179;42.640;23.312;2022-10-17T03:46:39;8.32;;;4.63;;
20036;SDS011;10179;42.640;23.312;2022-10-17T03:49:04;10.15;;;5.00;;
20036;SDS011;10179;42.640;23.312;2022-10-17T03:51:31;14.00;;;6.38;;
20036;SDS011;10179;42.640;23.312;2022-10-17T03:53:57;11.18;;;6.10;;
20036;SDS011;10179;42.640;23.312;2022-10-17T03:56:23;11.73;;;7.03;;
20036;SDS011;10179;42.640;23.312;2022-10-17T03:58:49;12.77;;;6.30;;
20036;SDS011;10179;42.640;23.312;2022-10-17T04:01:16;10.43;;;5.70;;
20036;SDS011;10179;42.640;23.312;2022-10-17T04:03:42;11.82;;;6.10;;
20036;SDS011;10179;42.640;23.312;2022-10-17T04:06:09;13.73;;;6.38;;
20036;SDS011;10179;42.640;23.312;2022-10-17T04:08:36;13.88;;;6.82;;
20036;SDS011;10179;42.640;23.312;2022-10-17T04:11:03;8.95;;;5.57;;
20036;SDS011;10179;42.640;23.312;2022-10-17T04:13:31;9.73;;;5.53;;
20036;SDS011;10179;42.640;23.312;2022-10-17T04:15:58;7.20;;;4.85;;
20036;SDS011;10179;42.640;23.312;2022-10-17T04:18:26;8.82;;;4.18;;
20036;SDS011;10179;42.640;23.312;2022-10-17T04:20:52;8.98;;;5.25;;
20036;SDS011;10179;42.640;23.312;2022-10-17T04:23:17;9.48;;;5.40;;
20036;SDS011;10179;42.640;23.312;2022-10-17T04:25:43;12.40;;;6.47;;
20036;SDS011;10179;42.640;23.312;2022-10-17T04:28:09;13.48;;;6.15;;
20036;SDS011;10179;42.640;23.312;2022-10-17T04:30:34;11.93;;;6.30;;
20036;SDS011;10179;42.640;23.312;2022-10-17T04:33:00;11.65;;;5.82;;
20036;SDS011;10179;42.640;23.312;2022-10-17T04:35:25;12.35;;;6.03;;
20036;SDS011;10179;42.640;23.312;2022-10-17T04:37:51;10.45;;;6.00;;
20036;SDS011;10179;42.640;23.312;2022-10-17T04:40:16;10.23;;;5.55;;
20036;SDS011;10179;42.640;23.312;2022-10-17T04:42:42;8.25;;;5.25;;
20036;SDS011;10179;42.640;23.312;2022-10-17T04:45:07;11.95;;;5.90;;
20036;SDS011;10179;42.640;23.312;2022-10-17T04:47:33;10.73;;;6.13;;
20036;SDS011;10179;42.640;23.312;2022-10-17T04:49:59;22.88;;;5.85;;
20036;SDS011;10179;42.640;23.312;2022-10-17T04:52:24;11.15;;;6.63;;
20036;SDS011;10179;42.640;23.312;2022-10-17T04:54:50;12.77;;;6.85;;
20036;SDS011;10179;42.640;23.312;2022-10-17T04:57:16;16.50;;;6.60;;
20036;SDS011;10179;42.640;23.312;2022-10-17T04:59:42;12.05;;;7.40;;
20036;SDS011;10179;42.640;23.312;2022-10-17T05:02:08;15.65;;;7.90;;
20036;SDS011;10179;42.640;23.312;2022-10-17T05:04:33;10.70;;;7.00;;
20036;SDS011;10179;42.640;23.312;2022-10-17T05:06:58;21.33;;;8.50;;
20036;SDS011;10179;42.640;23.312;2022-10-17T05:09:24;20.40;;;9.20;;
20036;SDS011;10179;42.640;23.312;2022-10-17T05:11:49;14.98;;;8.10;;
20036;SDS011;10179;42.640;23.312;2022-10-17T05:14:15;16.42;;;8.27;;
20036;SDS011;10179;42.640;23.312;2022-10-17T05:16:40;15.27;;;8.23;;
20036;SDS011;10179;42.640;23.312;2022-10-17T05:19:05;15.15;;;8.43;;
20036;SDS011;10179;42.640;23.312;2022-10-17T05:21:31;14.13;;;7.30;;
20036;SDS011;10179;42.640;23.312;2022-10-17T05:23:56;19.02;;;8.90;;
20036;SDS011;10179;42.640;23.312;2022-10-17T05:26:23;20.70;;;9.68;;
20036;SDS011;10179;42.640;23.312;2022-10-17T05:28:49;17.92;;;8.85;;
20036;SDS011;10179;42.640;23.312;2022-10-17T05:31:16;18.80;;;8.20;;
20036;SDS011;10179;42.640;23.312;2022-10-17T05:33:42;21.05;;;8.25;;
20036;SDS011;10179;42.640;23.312;2022-10-17T05:36:08;15.48;;;9.27;;
20036;SDS011;10179;42.640;23.312;2022-10-17T05:38:33;15.90;;;8.43;;
20036;SDS011;10179;42.640;23.312;2022-10-17T05:41:00;14.70;;;8.93;;
20036;SDS011;10179;42.640;23.312;2022-10-17T05:43:27;16.08;;;8.85;;
20036;SDS011;10179;42.640;23.312;2022-10-17T05:45:53;14.93;;;8.00;;
20036;SDS011;10179;42.640;23.312;2022-10-17T05:48:19;15.77;;;9.13;;
20036;SDS011;10179;42.640;23.312;2022-10-17T05:50:44;13.15;;;8.43;;
20036;SDS011;10179;42.640;23.312;2022-10-17T05:53:10;14.48;;;7.85;;
20036;SDS011;10179;42.640;23.312;2022-10-17T05:55:35;16.15;;;8.10;;
20036;SDS011;10179;42.640;23.312;2022-10-17T05:58:01;11.65;;;7.22;;
20036;SDS011;10179;42.640;23.312;2022-10-17T06:00:27;15.50;;;8.57;;
20036;SDS011;10179;42.640;23.312;2022-10-17T06:02:52;15.20;;;8.15;;
20036;SDS011;10179;42.640;23.312;2022-10-17T06:05:18;19.95;;;8.50;;
20036;SDS011;10179;42.640;23.312;2022-10-17T06:07:44;19.40;;;9.40;;
20036;SDS011;10179;42.640;23.312;2022-10-17T06:10:09;22.33;;;9.27;;
20036;SDS011;10179;42.640;23.312;2022-10-17T06:12:40;24.80;;;10.70;;
20036;SDS011;10179;42.640;23.312;2022-10-17T06:15:06;25.10;;;10.60;;
20036;SDS011;10179;42.640;23.312;2022-10-17T06:17:32;25.27;;;9.95;;
20036;SDS011;10179;42.640;23.312;2022-10-17T06:19:59;26.05;;;10.65;;
20036;SDS011;10179;42.640;23.312;2022-10-17T06:22:24;25.90;;;10.48;;
20036;SDS011;10179;42.640;23.312;2022-10-17T06:24:49;31.42;;;12.43;;
20036;SDS011;10179;42.640;23.312;2022-10-17T06:27:17;25.08;;;10.98;;
20036;SDS011;10179;42.640;23.312;2022-10-17T06:29:42;22.80;;;9.43;;
20036;SDS011;10179;42.640;23.312;2022-10-17T06:32:08;24.13;;;10.15;;
20036;SDS011;10179;42.640;23.312;2022-10-17T06:34:33;24.70;;;9.98;;
20036;SDS011;10179;42.640;23.312;2022-10-17T06:36:58;27.60;;;10.65;;
20036;SDS011;10179;42.640;23.312;2022-10-17T06:39:24;17.92;;;10.27;;
20036;SDS011;10179;42.640;23.312;2022-10-17T06:41:51;18.77;;;9.20;;
20036;SDS011;10179;42.640;23.312;2022-10-17T06:44:16;20.27;;;9.30;;
20036;SDS011;10179;42.640;23.312;2022-10-17T06:46:42;20.58;;;8.27;;
20036;SDS011;10179;42.640;23.312;2022-10-17T06:49:08;18.35;;;8.60;;
20036;SDS011;10179;42.640;23.312;2022-10-17T06:51:34;22.10;;;9.73;;
20036;SDS011;10179;42.640;23.312;2022-10-17T06:54:00;21.77;;;9.50;;
20036;SDS011;10179;42.640;23.312;2022-10-17T06:56:26;19.70;;;9.35;;
20036;SDS011;10179;42.640;23.312;2022-10-17T06:58:52;19.38;;;10.02;;
20036;SDS011;10179;42.640;23.312;2022-10-17T07:01:18;24.80;;;10.00;;
20036;SDS011;10179;42.640;23.312;2022-10-17T07:03:46;19.55;;;9.50;;
20036;SDS011;10179;42.640;23.312;2022-10-17T07:06:12;26.25;;;10.82;;
20036;SDS011;10179;42.640;23.312;2022-10-17T07:08:41;19.08;;;9.80;;
20036;SDS011;10179;42.640;23.312;2022-10-17T07:11:15;17.50;;;10.10;;
20036;SDS011;10179;42.640;23.312;2022-10-17T07:13:42;23.80;;;10.10;;
20036;SDS011;10179;42.640;23.312;2022-10-17T07:16:08;24.90;;;9.95;;
20036;SDS011;10179;42.640;23.312;2022-10-17T07:18:34;21.35;;;10.18;;
20036;SDS011;10179;42.640;23.312;2022-10-17T07:20:59;21.65;;;9.70;;
20036;SDS011;10179;42.640;23.312;2022-10-17T07:23:25;24.13;;;11.10;;
20036;SDS011;10179;42.640;23.312;2022-10-17T07:25:50;26.20;;;10.57;;
20036;SDS011;10179;42.640;23.312;2022-10-17T07:28:16;18.98;;;10.45;;
20036;SDS011;10179;42.640;23.312;2022-10-17T07:30:42;17.98;;;8.77;;
20036;SDS011;10179;42.640;23.312;2022-10-17T07:33:08;21.42;;;10.02;;
20036;SDS011;10179;42.640;23.312;2022-10-17T07:35:33;17.83;;;9.25;;
20036;SDS011;10179;42.640;23.312;2022-10-17T07:37:59;23.15;;;8.98;;
20036;SDS011;10179;42.640;23.312;2022-10-17T07:40:24;14.10;;;7.72;;
20036;SDS011;10179;42.640;23.312;2022-10-17T07:42:50;16.25;;;7.80;;
20036;SDS011;10179;42.640;23.312;2022-10-17T07:45:15;19.45;;;7.78;;
20036;SDS011;10179;42.640;23.312;2022-10-17T07:47:41;18.70;;;6.88;;
20036;SDS011;10179;42.640;23.312;2022-10-17T07:50:07;13.15;;;6.05;;
20036;SDS011;10179;42.640;23.312;2022-10-17T07:52:33;15.77;;;6.78;;
20036;SDS011;10179;42.640;23.312;2022-10-17T07:54:59;14.82;;;7.20;;
20036;SDS011;10179;42.640;23.312;2022-10-17T07:57:24;18.63;;;6.63;;
20036;SDS011;10179;42.640;23.312;2022-10-17T07:59:50;23.48;;;7.00;;
20036;SDS011;10179;42.640;23.312;2022-10-17T08:02:25;15.15;;;6.57;;
20036;SDS011;10179;42.640;23.312;2022-10-17T08:04:51;16.60;;;7.57;;
20036;SDS011;10179;42.640;23.312;2022-10-17T08:07:18;15.95;;;7.35;;
20036;SDS011;10179;42.640;23.312;2022-10-17T08:09:44;12.02;;;6.28;;
20036;SDS011;10179;42.640;23.312;2022-10-17T08:12:11;21.80;;;6.80;;
20036;SDS011;10179;42.640;23.312;2022-10-17T08:14:38;15.88;;;7.43;;
20036;SDS011;10179;42.640;23.312;2022-10-17T08:17:04;13.85;;;7.03;;
20036;SDS011;10179;42.640;23.312;2022-10-17T08:19:30;15.30;;;6.70;;
20036;SDS011;10179;42.640;23.312;2022-10-17T08:21:55;14.73;;;6.38;;
20036;SDS011;10179;42.640;23.312;2022-10-17T08:24:22;17.10;;;6.97;;
20036;SDS011;10179;42.640;23.312;2022-10-17T08:26:47;10.35;;;5.55;;
20036;SDS011;10179;42.640;23.312;2022-10-17T08:29:13;15.82;;;6.72;;
20036;SDS011;10179;42.640;23.312;2022-10-17T08:31:40;14.50;;;6.70;;
20036;SDS011;10179;42.640;23.312;2022-10-17T08:34:05;14.65;;;7.25;;
20036;SDS011;10179;42.640;23.312;2022-10-17T08:36:31;11.93;;;6.00;;
20036;SDS011;10179;42.640;23.312;2022-10-17T08:38:56;15.65;;;6.72;;
20036;SDS011;10179;42.640;23.312;2022-10-17T08:44:19;13.35;;;5.60;;
20036;SDS011;10179;42.640;23.312;2022-10-17T08:47:04;14.45;;;5.90;;
20036;SDS011;10179;42.640;23.312;2022-10-17T08:49:50;16.95;;;5.75;;
20036;SDS011;10179;42.640;23.312;2022-10-17T08:55:13;14.40;;;5.85;;
20036;SDS011;10179;42.640;23.312;2022-10-17T08:57:40;11.65;;;5.93;;
20036;SDS011;10179;42.640;23.312;2022-10-17T09:00:11;18.88;;;5.95;;
20036;SDS011;10179;42.640;23.312;2022-10-17T09:02:47;14.43;;;5.80;;
20036;SDS011;10179;42.640;23.312;2022-10-17T09:13:39;12.63;;;6.40;;
20036;SDS011;10179;42.640;23.312;2022-10-17T09:19:33;13.55;;;6.10;;
20036;SDS011;10179;42.640;23.312;2022-10-17T09:21:41;16.98;;;8.60;;
20036;SDS011;10179;42.640;23.312;2022-10-17T09:24:17;15.98;;;8.10;;
20036;SDS011;10179;42.640;23.312;2022-10-17T09:26:49;13.45;;;6.50;;
20036;SDS011;10179;42.640;23.312;2022-10-17T09:29:22;15.32;;;6.97;;
20036;SDS011;10179;42.640;23.312;2022-10-17T09:31:53;20.63;;;7.47;;
20036;SDS011;10179;42.640;23.312;2022-10-17T09:34:29;15.20;;;6.95;;
20036;SDS011;10179;42.640;23.312;2022-10-17T09:36:59;12.40;;;5.10;;
20036;SDS011;10179;42.640;23.312;2022-10-17T09:39:26;18.45;;;5.30;;
20036;SDS011;10179;42.640;23.312;2022-10-17T09:41:58;16.25;;;5.25;;
20036;SDS011;10179;42.640;23.312;2022-10-17T09:49:45;11.25;;;4.28;;
20036;SDS011;10179;42.640;23.312;2022-10-17T09:54:50;13.63;;;4.10;;
20036;SDS011;10179;42.640;23.312;2022-10-17T09:57:19;10.93;;;3.75;;
20036;SDS011;10179;42.640;23.312;2022-10-17T10:02:30;7.55;;;4.05;;
20036;SDS011;10179;42.640;23.312;2022-10-17T10:05:01;7.93;;;3.67;;
20036;SDS011;10179;42.640;23.312;2022-10-17T10:07:40;5.35;;;3.10;;
20036;SDS011;10179;42.640;23.312;2022-10-17T10:10:21;6.60;;;3.13;;
20036;SDS011;10179;42.640;23.312;2022-10-17T10:15:50;17.67;;;4.18;;
20036;SDS011;10179;42.640;23.312;2022-10-17T10:18:33;5.53;;;3.15;;
20036;SDS011;10179;42.640;23.312;2022-10-17T10:21:07;8.77;;;2.90;;
20036;SDS011;10179;42.640;23.312;2022-10-17T10:23:42;6.18;;;2.55;;
20036;SDS011;10179;42.640;23.312;2022-10-17T10:26:19;4.53;;;2.60;;
20036;SDS011;10179;42.640;23.312;2022-10-17T10:28:57;2.83;;;1.92;;
20036;SDS011;10179;42.640;23.312;2022-10-17T10:31:27;5.30;;;2.13;;
20036;SDS011;10179;42.640;23.312;2022-10-17T10:33:59;6.97;;;2.05;;
20036;SDS011;10179;42.640;23.312;2022-10-17T10:36:49;5.78;;;2.30;;
20036;SDS011;10179;42.640;23.312;2022-10-17T10:42:31;3.28;;;2.10;;
20036;SDS011;10179;42.640;23.312;2022-10-17T10:47:55;3.75;;;2.33;;
20036;SDS011;10179;42.640;23.312;2022-10-17T10:55:29;6.32;;;2.28;;
20036;SDS011;10179;42.640;23.312;2022-10-17T10:58:02;6.80;;;3.15;;
20036;SDS011;10179;42.640;23.312;2022-10-17T11:00:33;10.23;;;2.88;;
20036;SDS011;10179;42.640;23.312;2022-10-17T11:03:19;5.40;;;2.53;;
20036;SDS011;10179;42.640;23.312;2022-10-17T11:05:55;5.40;;;1.98;;
20036;SDS011;10179;42.640;23.312;2022-10-17T11:08:28;3.50;;;2.17;;
20036;SDS011;10179;42.640;23.312;2022-10-17T11:11:01;4.82;;;2.45;;
20036;SDS011;10179;42.640;23.312;2022-10-17T11:13:35;5.05;;;2.58;;
20036;SDS011;10179;42.640;23.312;2022-10-17T11:26:52;5.90;;;2.30;;
20036;SDS011;10179;42.640;23.312;2022-10-17T11:29:24;6.20;;;2.28;;
20036;SDS011;10179;42.640;23.312;2022-10-17T11:31:57;7.28;;;2.25;;
20036;SDS011;10179;42.640;23.312;2022-10-17T11:34:28;4.80;;;2.20;;
20036;SDS011;10179;42.640;23.312;2022-10-17T11:37:01;5.32;;;1.92;;
20036;SDS011;10179;42.640;23.312;2022-10-17T11:42:19;4.43;;;2.10;;
20036;SDS011;10179;42.640;23.312;2022-10-17T11:44:50;8.48;;;2.10;;
20036;SDS011;10179;42.640;23.312;2022-10-17T11:47:28;3.88;;;2.05;;
20036;SDS011;10179;42.640;23.312;2022-10-17T11:55:16;4.93;;;2.03;;
20036;SDS011;10179;42.640;23.312;2022-10-17T12:03:56;3.63;;;2.08;;
20036;SDS011;10179;42.640;23.312;2022-10-17T12:12:22;8.75;;;2.25;;
20036;SDS011;10179;42.640;23.312;2022-10-17T12:14:51;7.18;;;2.22;;
20036;SDS011;10179;42.640;23.312;2022-10-17T12:22:47;5.97;;;2.35;;
20036;SDS011;10179;42.640;23.312;2022-10-17T12:25:18;10.63;;;2.60;;
20036;SDS011;10179;42.640;23.312;2022-10-17T12:27:50;8.27;;;2.20;;
20036;SDS011;10179;42.640;23.312;2022-10-17T12:30:28;7.43;;;2.40;;
20036;SDS011;10179;42.640;23.312;2022-10-17T12:35:48;3.53;;;2.35;;
20036;SDS011;10179;42.640;23.312;2022-10-17T12:38:19;5.22;;;2.75;;
20036;SDS011;10179;42.640;23.312;2022-10-17T12:49:16;3.50;;;2.30;;
20036;SDS011;10179;42.640;23.312;2022-10-17T12:51:24;5.95;;;2.42;;
20036;SDS011;10179;42.640;23.312;2022-10-17T12:56:30;6.78;;;2.15;;
20036;SDS011;10179;42.640;23.312;2022-10-17T12:59:16;4.07;;;2.28;;
20036;SDS011;10179;42.640;23.312;2022-10-17T13:02:02;9.98;;;2.50;;
20036;SDS011;10179;42.640;23.312;2022-10-17T13:04:28;5.88;;;2.42;;
20036;SDS011;10179;42.640;23.312;2022-10-17T13:06:55;4.95;;;2.45;;
20036;SDS011;10179;42.640;23.312;2022-10-17T13:09:25;4.05;;;1.95;;
20036;SDS011;10179;42.640;23.312;2022-10-17T13:11:56;5.15;;;2.38;;
20036;SDS011;10179;42.640;23.312;2022-10-17T13:14:25;4.18;;;2.33;;
20036;SDS011;10179;42.640;23.312;2022-10-17T13:16:52;6.45;;;2.50;;
20036;SDS011;10179;42.640;23.312;2022-10-17T13:19:20;4.07;;;2.17;;
20036;SDS011;10179;42.640;23.312;2022-10-17T13:21:53;8.15;;;2.30;;
20036;SDS011;10179;42.640;23.312;2022-10-17T13:24:34;3.80;;;1.98;;
20036;SDS011;10179;42.640;23.312;2022-10-17T13:27:03;4.90;;;2.00;;
20036;SDS011;10179;42.640;23.312;2022-10-17T13:29:29;6.68;;;2.22;;
20036;SDS011;10179;42.640;23.312;2022-10-17T13:32:03;9.50;;;2.53;;
20036;SDS011;10179;42.640;23.312;2022-10-17T13:34:30;12.98;;;2.30;;
20036;SDS011;10179;42.640;23.312;2022-10-17T13:36:57;6.88;;;3.00;;
20036;SDS011;10179;42.640;23.312;2022-10-17T13:39:27;3.53;;;1.90;;
20036;SDS011;10179;42.640;23.312;2022-10-17T13:41:54;5.15;;;2.00;;
20036;SDS011;10179;42.640;23.312;2022-10-17T13:44:22;6.63;;;2.35;;
20036;SDS011;10179;42.640;23.312;2022-10-17T13:46:51;8.35;;;2.33;;
20036;SDS011;10179;42.640;23.312;2022-10-17T13:52:04;5.97;;;2.42;;
20036;SDS011;10179;42.640;23.312;2022-10-17T13:54:43;2.75;;;1.90;;
20036;SDS011;10179;42.640;23.312;2022-10-17T13:59:53;9.15;;;2.20;;
20036;SDS011;10179;42.640;23.312;2022-10-17T14:02:23;3.53;;;1.88;;
20036;SDS011;10179;42.640;23.312;2022-10-17T14:07:29;10.38;;;2.20;;
20036;SDS011;10179;42.640;23.312;2022-10-17T14:09:59;4.05;;;2.00;;
20036;SDS011;10179;42.640;23.312;2022-10-17T14:12:25;6.03;;;2.30;;
20036;SDS011;10179;42.640;23.312;2022-10-17T14:14:52;3.55;;;2.00;;
20036;SDS011;10179;42.640;23.312;2022-10-17T14:17:24;7.90;;;2.97;;
20036;SDS011;10179;42.640;23.312;2022-10-17T14:19:52;9.35;;;3.20;;
20036;SDS011;10179;42.640;23.312;2022-10-17T14:24:45;7.78;;;2.85;;
20036;SDS011;10179;42.640;23.312;2022-10-17T14:29:59;8.35;;;3.72;;
20036;SDS011;10179;42.640;23.312;2022-10-17T14:32:29;14.18;;;5.22;;
20036;SDS011;10179;42.640;23.312;2022-10-17T14:34:58;21.15;;;8.15;;
20036;SDS011;10179;42.640;23.312;2022-10-17T14:39:59;33.25;;;14.20;;
20036;SDS011;10179;42.640;23.312;2022-10-17T14:42:26;20.33;;;9.55;;
20036;SDS011;10179;42.640;23.312;2022-10-17T14:44:53;18.58;;;7.68;;
20036;SDS011;10179;42.640;23.312;2022-10-17T14:47:22;14.93;;;6.47;;
20036;SDS011;10179;42.640;23.312;2022-10-17T14:50:01;23.65;;;9.30;;
20036;SDS011;10179;42.640;23.312;2022-10-17T14:52:31;20.80;;;9.18;;
20036;SDS011;10179;42.640;23.312;2022-10-17T14:54:58;21.10;;;10.15;;
20036;SDS011;10179;42.640;23.312;2022-10-17T14:57:38;12.18;;;4.47;;
20036;SDS011;10179;42.640;23.312;2022-10-17T15:00:06;14.68;;;6.90;;
20036;SDS011;10179;42.640;23.312;2022-10-17T15:02:34;9.57;;;5.18;;
20036;SDS011;10179;42.640;23.312;2022-10-17T15:05:00;11.35;;;5.00;;
20036;SDS011;10179;42.640;23.312;2022-10-17T15:07:25;6.85;;;3.08;;
20036;SDS011;10179;42.640;23.312;2022-10-17T15:09:51;10.70;;;5.72;;
20036;SDS011;10179;42.640;23.312;2022-10-17T15:12:19;15.98;;;6.50;;
20036;SDS011;10179;42.640;23.312;2022-10-17T15:14:46;10.02;;;4.53;;
20036;SDS011;10179;42.640;23.312;2022-10-17T15:17:16;9.13;;;4.03;;
20036;SDS011;10179;42.640;23.312;2022-10-17T15:19:45;15.63;;;4.70;;
20036;SDS011;10179;42.640;23.312;2022-10-17T15:22:10;7.75;;;3.80;;
20036;SDS011;10179;42.640;23.312;2022-10-17T15:24:36;8.73;;;4.05;;
20036;SDS011;10179;42.640;23.312;2022-10-17T15:27:01;33.38;;;11.00;;
20036;SDS011;10179;42.640;23.312;2022-10-17T15:29:27;23.52;;;9.98;;
20036;SDS011;10179;42.640;23.312;2022-10-17T15:31:52;20.52;;;10.73;;
20036;SDS011;10179;42.640;23.312;2022-10-17T15:34:18;30.27;;;12.57;;
20036;SDS011;10179;42.640;23.312;2022-10-17T15:36:47;31.23;;;13.93;;
20036;SDS011;10179;42.640;23.312;2022-10-17T15:39:14;40.25;;;16.75;;
20036;SDS011;10179;42.640;23.312;2022-10-17T15:41:40;40.90;;;17.65;;
20036;SDS011;10179;42.640;23.312;2022-10-17T15:44:05;38.95;;;17.08;;
20036;SDS011;10179;42.640;23.312;2022-10-17T15:46:32;23.15;;;9.75;;
20036;SDS011;10179;42.640;23.312;2022-10-17T15:49:03;20.67;;;8.27;;
20036;SDS011;10179;42.640;23.312;2022-10-17T15:51:29;20.25;;;6.82;;
20036;SDS011;10179;42.640;23.312;2022-10-17T15:53:55;16.58;;;6.55;;
20036;SDS011;10179;42.640;23.312;2022-10-17T15:56:22;11.82;;;5.55;;
20036;SDS011;10179;42.640;23.312;2022-10-17T15:58:56;12.52;;;5.18;;
20036;SDS011;10179;42.640;23.312;2022-10-17T16:01:22;13.77;;;4.63;;
20036;SDS011;10179;42.640;23.312;2022-10-17T16:03:50;13.00;;;5.00;;
20036;SDS011;10179;42.640;23.312;2022-10-17T16:06:17;12.00;;;4.78;;
20036;SDS011;10179;42.640;23.312;2022-10-17T16:08:44;7.43;;;4.35;;
20036;SDS011;10179;42.640;23.312;2022-10-17T16:11:31;8.88;;;4.40;;
20036;SDS011;10179;42.640;23.312;2022-10-17T16:13:58;8.93;;;4.00;;
20036;SDS011;10179;42.640;23.312;2022-10-17T16:16:25;10.70;;;5.07;;
20036;SDS011;10179;42.640;23.312;2022-10-17T16:18:51;17.27;;;8.38;;
20036;SDS011;10179;42.640;23.312;2022-10-17T16:21:18;33.30;;;14.75;;
20036;SDS011;10179;42.640;23.312;2022-10-17T16:23:44;30.40;;;13.38;;
20036;SDS011;10179;42.640;23.312;2022-10-17T16:26:10;17.42;;;8.13;;
20036;SDS011;10179;42.640;23.312;2022-10-17T16:28:38;16.38;;;7.35;;
20036;SDS011;10179;42.640;23.312;2022-10-17T16:31:09;13.43;;;7.15;;
20036;SDS011;10179;42.640;23.312;2022-10-17T16:33:49;16.92;;;8.40;;
20036;SDS011;10179;42.640;23.312;2022-10-17T16:36:16;19.80;;;8.13;;
20036;SDS011;10179;42.640;23.312;2022-10-17T16:38:42;18.42;;;6.88;;
20036;SDS011;10179;42.640;23.312;2022-10-17T16:41:18;12.43;;;6.90;;
20036;SDS011;10179;42.640;23.312;2022-10-17T16:43:47;14.10;;;7.70;;
20036;SDS011;10179;42.640;23.312;2022-10-17T16:46:14;15.90;;;8.13;;
20036;SDS011;10179;42.640;23.312;2022-10-17T16:48:40;18.02;;;8.75;;
20036;SDS011;10179;42.640;23.312;2022-10-17T16:51:06;18.48;;;7.78;;
20036;SDS011;10179;42.640;23.312;2022-10-17T16:53:32;20.67;;;7.57;;
20036;SDS011;10179;42.640;23.312;2022-10-17T16:56:01;21.10;;;8.70;;
20036;SDS011;10179;42.640;23.312;2022-10-17T16:58:28;22.23;;;9.13;;